createdAt,value
2018-08-10T00:00:50.370Z,95089.09
2018-08-10T00:15:51.266Z,95079.09
2018-08-10T00:30:51.841Z,95094.53
2018-08-10T00:45:51.989Z,95085.97
2018-08-10T01:00:50.911Z,95082.47
2018-08-10T01:15:50.193Z,95089.40
2018-08-10T01:30:49.585Z,95103.58
2018-08-10T01:45:50.109Z,95102.02
2018-08-10T02:00:50.448Z,95101.21
2018-08-10T02:15:50.770Z,95121.37
2018-08-10T02:30:50.689Z,95126.98
2018-08-10T02:45:51.268Z,95149.08
2018-08-10T03:00:53.845Z,95150.31
2018-08-10T03:15:50.233Z,95159.64
2018-08-10T03:30:50.146Z,95167.08
2018-08-10T03:45:51.195Z,95172.39
2018-08-10T04:00:51.198Z,95195.08
2018-08-10T04:15:50.596Z,95197.63
2018-08-10T04:30:50.493Z,95184.92
2018-08-10T04:45:52.560Z,95197.47
2018-08-10T05:00:50.513Z,95206.69
2018-08-10T05:15:52.957Z,95224.52
2018-08-10T05:30:50.963Z,95213.91
2018-08-10T05:45:51.456Z,95212.05
2018-08-10T06:00:52.481Z,95220.28
2018-08-10T06:15:50.394Z,95226.75
2018-08-10T06:30:50.413Z,95228.16
2018-08-10T06:45:50.348Z,95232.64
2018-08-10T07:00:50.388Z,95227.22
2018-08-10T07:15:50.736Z,95228.88
2018-08-10T07:30:50.749Z,95224.63
2018-08-10T07:45:50.749Z,95235.25
2018-08-10T08:00:50.734Z,95246.19
2018-08-10T08:15:51.261Z,95228.83
2018-08-10T08:30:51.860Z,95225.25
2018-08-10T09:00:51.162Z,95227.36
2018-08-10T09:15:50.163Z,95234.00
2018-08-10T09:30:50.602Z,95231.41
2018-08-10T09:45:50.549Z,95220.95
2018-08-10T10:00:56.124Z,95207.37
2018-08-10T10:15:51.120Z,95203.44
2018-08-10T10:30:51.055Z,95194.80
2018-08-10T10:45:50.985Z,95173.71
2018-08-10T11:00:51.029Z,95164.16
2018-08-10T11:15:50.402Z,95155.55
2018-08-10T11:30:50.539Z,95153.06
2018-08-10T11:45:50.595Z,95154.34
2018-08-10T12:00:50.988Z,95142.17
2018-08-10T12:15:50.836Z,95115.27
2018-08-10T12:30:50.939Z,95112.05
2018-08-10T12:45:51.030Z,95105.91
2018-08-10T13:00:50.901Z,95102.49
2018-08-10T13:15:50.553Z,95086.72
2018-08-10T13:30:51.221Z,95100.42
2018-08-10T13:45:51.218Z,95100.52
2018-08-10T14:00:51.458Z,95086.42
2018-08-10T14:15:52.480Z,95097.26
2018-08-10T14:30:50.802Z,95097.25
2018-08-10T14:45:50.202Z,95100.67
2018-08-10T15:00:52.736Z,95108.37
2018-08-10T15:15:51.020Z,95108.27
2018-08-10T15:30:49.999Z,95100.52
2018-08-10T15:45:50.945Z,95114.11
2018-08-10T16:00:52.524Z,95118.66
2018-08-10T16:15:50.450Z,95125.12
2018-08-10T16:30:52.439Z,95120.78
2018-08-10T16:45:50.556Z,95140.91
2018-08-10T17:00:50.330Z,95136.78
2018-08-10T17:15:53.304Z,95160.61
2018-08-10T17:30:50.340Z,95154.16
2018-08-10T17:45:51.889Z,95171.23
2018-08-10T18:00:51.231Z,95192.55
2018-08-10T18:15:50.384Z,95200.16
2018-08-10T18:30:50.290Z,95201.64
2018-08-10T18:45:52.230Z,95212.05
2018-08-10T19:00:50.286Z,95215.45
2018-08-10T19:15:53.625Z,95212.08
2018-08-10T19:30:50.474Z,95216.06
2018-08-10T19:45:50.688Z,95206.86
2018-08-10T20:00:50.623Z,95207.12
2018-08-10T20:15:53.282Z,95201.38
2018-08-10T20:30:53.117Z,95190.91
2018-08-10T20:45:51.101Z,95185.20
2018-08-10T21:00:51.278Z,95181.50
2018-08-10T21:15:50.292Z,95173.16
2018-08-10T21:30:50.479Z,95171.49
2018-08-10T21:45:50.453Z,95175.09
2018-08-10T22:00:55.424Z,95180.40
2018-08-10T22:15:55.796Z,95168.89
2018-08-10T22:30:50.794Z,95185.64
2018-08-10T22:45:50.809Z,95179.62
2018-08-10T23:00:50.847Z,95175.52
2018-08-10T23:15:50.005Z,95168.05
2018-08-10T23:30:51.103Z,95177.00
2018-08-10T23:45:50.535Z,95181.88
